Time;durP1;ratioP1;P1;durP2;ratioP2;P2;SDS_P1;SDS_P2;PMS_P1;PMS_P2;Temp;Humidity;BMP_temperature;BMP_pressure;BME280_temperature;BME280_humidity;BME280_pressure;Samples;Min_cycle;Max_cycle;Signal;HPM_P1;HPM_P2
2023/01/04 00:01:39;;;;;;;9.13;2.42;;;8.20;99.90;;;;;;5034403;28;20021;-82
2023/01/04 00:04:05;;;;;;;5.22;1.75;;;8.20;99.90;;;;;;5051903;28;20057;-83
2023/01/04 00:06:31;;;;;;;8.50;2.65;;;8.20;99.90;;;;;;5054313;28;20020;-83
2023/01/04 00:08:56;;;;;;;8.90;2.03;;;8.20;99.90;;;;;;5034179;28;20025;-82
2023/01/04 00:11:23;;;;;;;9.45;2.47;;;8.10;99.90;;;;;;5033649;28;20424;-82
2023/01/04 00:13:51;;;;;;;5.18;2.00;;;8.10;99.90;;;;;;5033955;28;20091;-83
2023/01/04 00:16:22;;;;;;;9.13;2.25;;;8.10;99.90;;;;;;5033952;28;20021;-82
2023/01/04 00:18:49;;;;;;;4.93;2.05;;;8.00;99.90;;;;;;5028388;28;20369;-83
2023/01/04 00:21:22;;;;;;;12.60;2.50;;;8.00;99.90;;;;;;5033632;28;20028;-82
2023/01/04 00:23:49;;;;;;;8.13;2.55;;;8.10;99.90;;;;;;5033906;28;20033;-82
2023/01/04 00:26:21;;;;;;;11.70;2.30;;;8.00;99.90;;;;;;5051348;28;20475;-82
2023/01/04 00:28:47;;;;;;;9.07;3.00;;;8.00;99.90;;;;;;5028387;28;20423;-82
2023/01/04 00:31:14;;;;;;;6.38;2.33;;;8.00;99.90;;;;;;5050285;28;20104;-82
2023/01/04 00:33:40;;;;;;;10.27;2.78;;;8.00;99.90;;;;;;5051605;28;20017;-82
2023/01/04 00:36:09;;;;;;;9.68;2.92;;;8.00;99.90;;;;;;5051419;28;20041;-82
2023/01/04 00:38:36;;;;;;;6.07;2.22;;;8.00;99.90;;;;;;5051430;28;20045;-81
2023/01/04 00:41:02;;;;;;;7.53;2.38;;;8.00;99.90;;;;;;5051638;28;20482;-82
2023/01/04 00:43:28;;;;;;;6.28;2.63;;;8.10;99.90;;;;;;5035466;28;20078;-82
2023/01/04 00:45:53;;;;;;;7.45;2.97;;;8.00;99.90;;;;;;5021216;28;20029;-82
2023/01/04 00:48:19;;;;;;;10.90;3.40;;;8.10;99.90;;;;;;5051395;28;20519;-82
2023/01/04 00:50:46;;;;;;;9.35;2.90;;;8.10;99.90;;;;;;5051763;28;20471;-82
2023/01/04 00:53:13;;;;;;;8.48;3.40;;;8.10;99.90;;;;;;5033786;28;20029;-82
2023/01/04 00:55:38;;;;;;;8.02;2.58;;;8.10;99.90;;;;;;5051236;28;20021;-82
2023/01/04 00:58:04;;;;;;;6.57;3.28;;;8.10;99.90;;;;;;5033550;28;20407;-81
2023/01/04 01:00:30;;;;;;;8.50;2.78;;;8.10;99.90;;;;;;5033845;28;20063;-81
2023/01/04 01:02:56;;;;;;;9.40;4.03;;;8.10;99.90;;;;;;5033853;28;20103;-82
2023/01/04 01:05:21;;;;;;;11.25;3.13;;;8.10;99.90;;;;;;5033372;28;21359;-81
2023/01/04 01:07:47;;;;;;;6.22;2.50;;;8.10;99.90;;;;;;5033626;28;20017;-81
2023/01/04 01:10:12;;;;;;;8.57;2.90;;;8.20;99.90;;;;;;5057472;28;20025;-82
2023/01/04 01:12:38;;;;;;;5.25;2.63;;;8.20;99.90;;;;;;5051728;28;20024;-82
2023/01/04 01:15:04;;;;;;;6.85;3.17;;;8.20;99.90;;;;;;5051338;28;20100;-82
2023/01/04 01:17:29;;;;;;;9.80;3.03;;;8.20;99.90;;;;;;5051316;28;20044;-82
2023/01/04 01:19:55;;;;;;;7.30;2.70;;;8.20;99.90;;;;;;5033820;28;20021;-82
2023/01/04 01:22:21;;;;;;;6.38;2.70;;;8.30;99.90;;;;;;5033365;28;20036;-82
2023/01/04 01:24:46;;;;;;;9.10;3.92;;;8.30;99.90;;;;;;5033701;28;20021;-82
2023/01/04 01:27:12;;;;;;;7.95;2.92;;;8.30;99.90;;;;;;5051051;28;20035;-81
2023/01/04 01:29:37;;;;;;;8.02;2.92;;;8.30;99.90;;;;;;5051331;28;20083;-81
2023/01/04 01:32:03;;;;;;;6.20;2.83;;;8.40;99.90;;;;;;5051503;28;20025;-81
2023/01/04 01:34:29;;;;;;;6.43;3.03;;;8.40;99.90;;;;;;5033444;28;20029;-82
2023/01/04 01:36:54;;;;;;;8.75;2.92;;;8.40;99.90;;;;;;5033258;28;20056;-82
2023/01/04 01:39:20;;;;;;;8.55;3.03;;;8.40;99.90;;;;;;5051391;28;20025;-81
2023/01/04 01:41:46;;;;;;;7.07;2.60;;;8.40;99.90;;;;;;5051935;28;20521;-82
2023/01/04 01:44:12;;;;;;;6.95;2.80;;;8.40;99.90;;;;;;5054829;28;20028;-82
2023/01/04 01:46:38;;;;;;;9.57;3.25;;;8.50;99.90;;;;;;5037336;28;20401;-82
2023/01/04 01:49:25;;;;;;;5.32;2.72;;;8.40;99.90;;;;;;5055196;28;20025;-82
2023/01/04 01:51:54;;;;;;;8.30;3.75;;;8.50;99.90;;;;;;5022341;28;20026;-82
2023/01/04 01:54:25;;;;;;;9.00;3.90;;;8.50;99.90;;;;;;5017754;28;20075;-81
2023/01/04 01:56:53;;;;;;;5.80;3.17;;;8.50;99.90;;;;;;5017701;28;20451;-82
2023/01/04 01:59:20;;;;;;;5.32;2.97;;;8.50;99.90;;;;;;5035311;28;20407;-81
2023/01/04 02:01:47;;;;;;;4.55;2.63;;;8.50;99.90;;;;;;5017726;28;20025;-82
2023/01/04 02:04:14;;;;;;;6.03;2.65;;;8.50;99.90;;;;;;5017400;28;20155;-82
2023/01/04 02:06:52;;;;;;;7.60;3.13;;;8.60;99.90;;;;;;5054015;28;20104;-82
2023/01/04 02:09:19;;;;;;;6.20;3.05;;;8.60;99.90;;;;;;5037237;28;20025;-82
2023/01/04 02:11:45;;;;;;;5.95;3.05;;;8.60;99.90;;;;;;5054579;28;20013;-82
2023/01/04 02:14:27;;;;;;;3.80;2.40;;;8.60;99.90;;;;;;5054590;28;20032;-82
2023/01/04 02:17:11;;;;;;;5.03;2.87;;;8.70;99.90;;;;;;5037327;28;20013;-82
2023/01/04 02:20:13;;;;;;;4.85;2.60;;;8.70;99.90;;;;;;5037072;28;20025;-81
2023/01/04 02:22:54;;;;;;;5.15;2.25;;;8.70;99.90;;;;;;5037285;28;20065;-81
2023/01/04 02:25:53;;;;;;;6.18;3.15;;;8.70;99.90;;;;;;5036849;28;20028;-81
2023/01/04 02:28:41;;;;;;;6.65;2.70;;;8.80;99.90;;;;;;5036735;28;20029;-82
2023/01/04 02:31:31;;;;;;;6.28;2.72;;;8.80;99.90;;;;;;5054845;28;20026;-81
2023/01/04 02:34:20;;;;;;;3.85;1.88;;;8.80;99.90;;;;;;5037024;28;20036;-82
2023/01/04 02:37:21;;;;;;;4.50;2.72;;;8.80;99.90;;;;;;5054720;28;20044;-81
2023/01/04 02:40:08;;;;;;;4.25;2.33;;;8.90;99.90;;;;;;5054883;28;20044;-80
2023/01/04 02:45:47;;;;;;;3.95;2.38;;;8.90;99.90;;;;;;5054873;28;20463;-81
2023/01/04 02:51:00;;;;;;;4.32;2.58;;;8.90;99.90;;;;;;5054624;28;20036;-81
2023/01/04 02:53:38;;;;;;;4.30;2.30;;;9.00;99.90;;;;;;5035432;28;20032;-82
2023/01/04 02:56:18;;;;;;;5.65;2.55;;;9.00;99.90;;;;;;5054487;28;20056;-81
2023/01/04 02:59:14;;;;;;;4.05;2.20;;;9.00;99.90;;;;;;5036344;28;20076;-81
2023/01/04 03:07:57;;;;;;;3.95;2.05;;;9.00;99.90;;;;;;5054307;28;20040;-82
2023/01/04 03:10:43;;;;;;;3.50;1.70;;;9.00;99.90;;;;;;5053907;28;20017;-82
2023/01/04 03:13:26;;;;;;;3.00;1.73;;;9.10;99.90;;;;;;5036004;28;20081;-81
2023/01/04 03:16:03;;;;;;;5.13;1.95;;;9.10;99.90;;;;;;5036036;28;20029;-81
2023/01/04 03:18:34;;;;;;;3.95;2.00;;;9.10;99.90;;;;;;5035957;28;20135;-82
2023/01/04 03:21:03;;;;;;;3.85;2.20;;;9.10;99.90;;;;;;5054017;28;20097;-81
2023/01/04 03:35:26;;;;;;;3.70;2.17;;;9.30;99.90;;;;;;5053602;28;20507;-81
2023/01/04 03:50:05;;;;;;;3.13;2.00;;;9.30;99.90;;;;;;4953504;29;20182;-81
2023/01/04 03:52:33;;;;;;;2.83;2.00;;;9.40;99.90;;;;;;5019237;28;20044;-81
2023/01/04 03:55:00;;;;;;;3.65;1.90;;;9.40;99.90;;;;;;5035262;28;20029;-82
2023/01/04 03:57:27;;;;;;;3.28;2.25;;;9.40;99.90;;;;;;5035236;28;20037;-81
2023/01/04 03:59:59;;;;;;;3.75;2.30;;;9.40;99.90;;;;;;5035297;28;20162;-82
2023/01/04 04:02:28;;;;;;;3.65;2.50;;;9.50;99.90;;;;;;5035272;28;20025;-82
2023/01/04 04:10:22;;;;;;;4.28;3.05;;;9.60;99.90;;;;;;5052848;28;20059;-81
2023/01/04 04:12:48;;;;;;;5.15;2.70;;;9.70;99.90;;;;;;5034970;28;20049;-81
2023/01/04 04:15:14;;;;;;;3.53;2.55;;;9.70;99.90;;;;;;5052936;28;20021;-81
2023/01/04 04:17:40;;;;;;;6.35;3.38;;;9.70;99.90;;;;;;5034748;28;20041;-81
2023/01/04 04:20:07;;;;;;;4.32;2.83;;;9.70;99.90;;;;;;5052926;28;20071;-82
2023/01/04 04:22:32;;;;;;;4.25;2.88;;;9.80;99.90;;;;;;5052758;28;20032;-82
2023/01/04 04:24:58;;;;;;;4.22;2.95;;;9.80;99.90;;;;;;5034880;28;20021;-82
2023/01/04 04:27:24;;;;;;;5.03;3.20;;;9.80;99.90;;;;;;5034914;28;20033;-82
2023/01/04 04:29:49;;;;;;;8.45;3.78;;;9.90;99.90;;;;;;5052464;28;20065;-82
2023/01/04 04:32:15;;;;;;;4.90;3.45;;;9.90;99.90;;;;;;5052775;28;20029;-83
2023/01/04 04:34:40;;;;;;;5.93;3.55;;;10.00;99.90;;;;;;5052723;28;20159;-81
2023/01/04 04:37:06;;;;;;;6.20;3.90;;;10.10;99.90;;;;;;5052206;28;20637;-82
2023/01/04 04:39:32;;;;;;;4.93;3.45;;;10.00;99.90;;;;;;5034460;28;20433;-82
2023/01/04 04:41:57;;;;;;;4.63;3.58;;;10.10;99.90;;;;;;5052763;28;20029;-82
2023/01/04 04:44:23;;;;;;;5.72;3.75;;;10.10;99.90;;;;;;5034796;28;20017;-81
2023/01/04 04:46:49;;;;;;;4.75;3.47;;;10.10;99.90;;;;;;5052417;28;20025;-82
2023/01/04 04:49:16;;;;;;;4.20;3.13;;;10.10;99.90;;;;;;5034324;28;20510;-81
2023/01/04 04:51:42;;;;;;;5.90;3.42;;;10.10;99.90;;;;;;5052109;28;20033;-82
2023/01/04 04:54:10;;;;;;;5.55;3.20;;;10.10;99.90;;;;;;5033798;28;20028;-82
2023/01/04 04:56:36;;;;;;;3.92;3.00;;;10.10;99.90;;;;;;5034512;28;20029;-82
2023/01/04 04:59:02;;;;;;;4.60;3.22;;;10.10;99.90;;;;;;5034351;28;20143;-81
2023/01/04 05:01:29;;;;;;;5.30;3.88;;;10.20;99.90;;;;;;5039982;28;20474;-82
2023/01/04 05:03:55;;;;;;;5.05;3.50;;;10.20;99.90;;;;;;5054391;28;20490;-82
2023/01/04 05:06:20;;;;;;;4.25;3.30;;;10.20;99.90;;;;;;5068679;28;20029;-82
2023/01/04 05:08:46;;;;;;;5.47;3.03;;;10.20;99.90;;;;;;5052210;28;20018;-82
2023/01/04 05:11:12;;;;;;;5.10;2.88;;;10.20;99.90;;;;;;5052070;28;20117;-82
2023/01/04 05:13:38;;;;;;;5.03;3.35;;;10.20;99.90;;;;;;5033749;28;20083;-82
2023/01/04 05:16:05;;;;;;;5.45;3.30;;;10.20;99.90;;;;;;5051937;28;20029;-81
2023/01/04 05:18:31;;;;;;;4.53;3.50;;;10.20;99.90;;;;;;5037352;28;20132;-82
2023/01/04 05:20:57;;;;;;;4.28;3.10;;;10.20;99.90;;;;;;5055713;28;20099;-82
2023/01/04 05:23:23;;;;;;;4.63;3.03;;;10.20;99.90;;;;;;5038195;28;20021;-81
2023/01/04 05:25:57;;;;;;;5.45;3.70;;;10.20;99.90;;;;;;5055981;28;20025;-82
2023/01/04 05:28:23;;;;;;;4.60;3.45;;;10.20;99.90;;;;;;5055970;28;20100;-81
2023/01/04 05:30:50;;;;;;;4.47;3.20;;;10.20;99.90;;;;;;5055897;28;20322;-81
2023/01/04 05:33:27;;;;;;;5.05;3.35;;;10.20;99.90;;;;;;5038201;28;20509;-81
2023/01/04 05:35:55;;;;;;;4.10;3.30;;;10.30;99.90;;;;;;5054140;28;20132;-82
2023/01/04 05:38:20;;;;;;;4.47;3.08;;;10.20;99.90;;;;;;5055567;28;20528;-81
2023/01/04 05:40:47;;;;;;;4.28;3.25;;;10.20;99.90;;;;;;5037835;28;20029;-82
2023/01/04 05:43:13;;;;;;;4.05;3.58;;;10.30;99.90;;;;;;5037643;28;20017;-82
2023/01/04 05:45:39;;;;;;;4.53;3.42;;;10.20;99.90;;;;;;5037647;28;20014;-81
2023/01/04 05:48:05;;;;;;;4.50;3.30;;;10.20;99.90;;;;;;5037741;28;20021;-80
2023/01/04 05:50:31;;;;;;;6.55;3.60;;;10.30;99.90;;;;;;5057214;28;20028;-82
2023/01/04 05:52:56;;;;;;;5.00;3.25;;;10.30;99.90;;;;;;5034289;28;20033;-81
2023/01/04 05:55:22;;;;;;;4.93;3.40;;;10.20;99.90;;;;;;5034566;28;20031;-81
2023/01/04 05:57:49;;;;;;;6.55;3.45;;;10.30;99.90;;;;;;5052804;28;20049;-81
2023/01/04 06:00:14;;;;;;;4.65;2.92;;;10.30;99.90;;;;;;5052759;28;20041;-82
2023/01/04 06:02:41;;;;;;;5.47;3.80;;;10.30;99.90;;;;;;5052798;28;20482;-82
2023/01/04 06:05:08;;;;;;;5.75;3.83;;;10.30;99.90;;;;;;5053194;28;20083;-81
2023/01/04 06:07:34;;;;;;;4.57;3.60;;;10.30;99.90;;;;;;5052688;28;20025;-82
2023/01/04 06:09:59;;;;;;;4.35;3.20;;;10.30;99.90;;;;;;5034318;28;20045;-82
2023/01/04 06:12:25;;;;;;;4.68;3.38;;;10.30;99.90;;;;;;5052864;28;20025;-81
2023/01/04 06:14:51;;;;;;;4.80;3.60;;;10.30;99.90;;;;;;5052280;28;20063;-82
2023/01/04 06:17:16;;;;;;;5.75;3.10;;;10.40;99.90;;;;;;5053003;28;20504;-82
2023/01/04 06:19:42;;;;;;;4.00;2.50;;;10.40;99.90;;;;;;5034280;28;20092;-82
2023/01/04 06:22:07;;;;;;;5.25;2.45;;;10.40;99.90;;;;;;5034595;28;20035;-82
2023/01/04 06:24:33;;;;;;;5.07;3.15;;;10.40;99.90;;;;;;5052352;28;20418;-81
2023/01/04 06:27:02;;;;;;;5.53;3.35;;;10.50;99.90;;;;;;5034582;28;20040;-81
2023/01/04 06:29:28;;;;;;;4.80;2.97;;;10.40;99.90;;;;;;5034337;28;20025;-82
2023/01/04 06:31:54;;;;;;;6.00;3.17;;;10.50;99.90;;;;;;5033695;28;20079;-81
2023/01/04 06:34:20;;;;;;;6.78;3.53;;;10.50;99.90;;;;;;5052422;28;20033;-82
2023/01/04 06:36:45;;;;;;;3.65;2.70;;;10.50;99.90;;;;;;5034266;28;20063;-82
2023/01/04 06:39:11;;;;;;;5.22;3.30;;;10.50;99.90;;;;;;5041057;28;20501;-83
2023/01/04 06:41:37;;;;;;;4.13;2.85;;;10.60;99.90;;;;;;5051353;28;20483;-82
2023/01/04 06:44:03;;;;;;;3.13;2.60;;;10.60;99.90;;;;;;5051755;28;20057;-82
2023/01/04 06:46:29;;;;;;;5.65;3.00;;;10.60;99.90;;;;;;5052039;28;20483;-82
2023/01/04 06:48:54;;;;;;;4.00;3.17;;;10.60;99.90;;;;;;5033955;28;20033;-82
2023/01/04 06:51:20;;;;;;;5.25;3.55;;;10.60;99.90;;;;;;5051901;28;20356;-83
2023/01/04 06:53:46;;;;;;;6.30;3.58;;;10.70;99.90;;;;;;5051434;28;20032;-81
2023/01/04 06:56:12;;;;;;;3.92;3.28;;;10.70;99.90;;;;;;5051769;28;20540;-82
2023/01/04 06:58:38;;;;;;;6.78;3.53;;;10.70;99.90;;;;;;5051344;28;20487;-82
2023/01/04 07:01:04;;;;;;;5.18;3.70;;;10.70;99.90;;;;;;5051475;28;20475;-81
2023/01/04 07:03:30;;;;;;;4.10;3.30;;;10.70;99.90;;;;;;5039816;28;20573;-82
2023/01/04 07:05:56;;;;;;;4.93;4.22;;;10.70;99.90;;;;;;5049695;28;20036;-82
2023/01/04 07:08:23;;;;;;;4.97;3.60;;;10.70;99.90;;;;;;5014489;28;20471;-82
2023/01/04 07:10:49;;;;;;;7.78;3.50;;;10.70;99.90;;;;;;5034481;28;20056;-83
2023/01/04 07:13:14;;;;;;;6.68;3.65;;;10.80;99.90;;;;;;5016649;28;20068;-82
2023/01/04 07:15:40;;;;;;;5.60;4.07;;;10.80;99.90;;;;;;5034300;28;20021;-82
2023/01/04 07:18:07;;;;;;;6.10;3.78;;;10.80;99.90;;;;;;5034192;28;20044;-82
2023/01/04 07:20:33;;;;;;;4.78;3.65;;;10.80;99.90;;;;;;5033968;28;20070;-83
2023/01/04 07:22:59;;;;;;;5.88;4.00;;;10.80;99.90;;;;;;5016364;28;20086;-82
2023/01/04 07:25:24;;;;;;;4.55;3.90;;;10.80;99.90;;;;;;5034013;28;20503;-81
2023/01/04 07:27:51;;;;;;;4.85;3.78;;;10.80;99.90;;;;;;5034348;28;20033;-82
2023/01/04 07:30:17;;;;;;;6.07;3.60;;;10.80;99.90;;;;;;5016043;28;20027;-82
2023/01/04 07:32:43;;;;;;;5.55;3.55;;;10.80;99.90;;;;;;5016238;28;20112;-82
2023/01/04 07:35:09;;;;;;;7.15;3.35;;;10.80;99.90;;;;;;5033680;28;20032;-82
2023/01/04 07:37:34;;;;;;;4.68;3.45;;;10.80;99.90;;;;;;5015937;28;20369;-82
2023/01/04 07:40:00;;;;;;;5.20;2.95;;;10.80;99.90;;;;;;5015239;28;20025;-82
2023/01/04 07:42:25;;;;;;;3.95;3.00;;;10.80;99.90;;;;;;5040498;28;20432;-82
2023/01/04 07:44:51;;;;;;;6.38;3.47;;;10.80;99.90;;;;;;5073539;28;20017;-82
2023/01/04 07:47:16;;;;;;;6.05;3.20;;;10.80;99.90;;;;;;5055184;28;20542;-82
2023/01/04 07:49:42;;;;;;;4.82;3.38;;;10.80;99.90;;;;;;5072900;28;20028;-83
2023/01/04 07:52:07;;;;;;;5.18;3.20;;;10.80;99.90;;;;;;5055174;28;20028;-82
2023/01/04 07:54:33;;;;;;;6.75;3.53;;;10.80;99.90;;;;;;5073011;28;20123;-81
2023/01/04 07:56:59;;;;;;;6.15;3.30;;;10.80;99.90;;;;;;5073405;28;20024;-82
2023/01/04 07:59:24;;;;;;;7.10;3.88;;;10.80;99.90;;;;;;5073018;28;20043;-82
2023/01/04 08:01:50;;;;;;;6.57;3.85;;;10.80;99.90;;;;;;5072908;28;20047;-82
2023/01/04 08:04:16;;;;;;;5.72;3.78;;;10.90;99.90;;;;;;5054889;28;20115;-81
2023/01/04 08:06:45;;;;;;;5.40;3.30;;;10.80;99.90;;;;;;5055245;28;20103;-81
2023/01/04 08:09:11;;;;;;;8.73;3.80;;;10.80;99.90;;;;;;5054948;28;20024;-82
2023/01/04 08:11:37;;;;;;;6.30;4.40;;;10.80;99.90;;;;;;5055130;28;20046;-82
2023/01/04 08:14:03;;;;;;;7.30;3.70;;;10.80;99.90;;;;;;5054825;28;20032;-83
2023/01/04 08:16:31;;;;;;;6.72;4.70;;;10.90;99.90;;;;;;5072673;28;20112;-81
2023/01/04 08:18:59;;;;;;;9.50;4.68;;;10.90;99.90;;;;;;5053997;28;20036;-84
2023/01/04 08:21:27;;;;;;;6.38;4.00;;;10.90;99.90;;;;;;5072047;28;20050;-83
2023/01/04 08:23:53;;;;;;;7.57;5.25;;;10.90;99.90;;;;;;5072690;28;20028;-83
2023/01/04 08:26:22;;;;;;;8.35;4.20;;;10.90;99.90;;;;;;5072837;28;20107;-84
2023/01/04 08:28:50;;;;;;;5.65;3.88;;;10.90;99.90;;;;;;5072454;28;20460;-83
2023/01/04 08:31:25;;;;;;;8.43;4.47;;;10.90;99.90;;;;;;5054440;28;20024;-83
2023/01/04 08:33:52;;;;;;;8.38;4.55;;;10.90;99.90;;;;;;5072650;28;20059;-84
2023/01/04 08:36:24;;;;;;;6.50;4.00;;;11.00;99.90;;;;;;5072383;28;20136;-84
2023/01/04 08:38:52;;;;;;;4.70;4.05;;;11.00;99.90;;;;;;5072527;28;20433;-84
2023/01/04 08:41:18;;;;;;;4.57;3.92;;;11.00;99.90;;;;;;5072044;28;20021;-86
2023/01/04 08:43:44;;;;;;;6.90;4.18;;;11.00;99.90;;;;;;5054355;28;20016;-85
2023/01/04 08:46:10;;;;;;;6.38;3.67;;;11.00;99.90;;;;;;5054413;28;20020;-83
2023/01/04 08:48:36;;;;;;;8.57;4.88;;;11.10;99.90;;;;;;5060619;28;20025;-83
2023/01/04 08:51:08;;;;;;;5.63;3.58;;;11.10;99.90;;;;;;5033679;28;20497;-82
2023/01/04 08:53:34;;;;;;;6.65;3.78;;;11.10;99.90;;;;;;5033776;28;20387;-83
2023/01/04 08:56:00;;;;;;;7.82;4.28;;;11.10;99.90;;;;;;5033796;28;20033;-83
2023/01/04 08:58:30;;;;;;;5.50;3.75;;;11.10;99.90;;;;;;5034002;28;20041;-83
2023/01/04 09:01:01;;;;;;;5.78;3.90;;;11.20;99.90;;;;;;5052226;28;20025;-83
2023/01/04 09:03:27;;;;;;;4.63;3.67;;;11.20;99.90;;;;;;5033777;28;20047;-83
2023/01/04 09:05:53;;;;;;;4.85;3.63;;;11.20;99.90;;;;;;5034138;28;20029;-84
2023/01/04 09:08:19;;;;;;;5.55;3.40;;;11.20;99.90;;;;;;5033983;28;20028;-84
2023/01/04 09:10:44;;;;;;;6.32;3.63;;;11.20;99.90;;;;;;5034184;28;20033;-83
2023/01/04 09:13:10;;;;;;;8.07;3.35;;;11.20;99.90;;;;;;5034276;28;20064;-83
2023/01/04 09:15:36;;;;;;;6.53;4.32;;;11.20;99.90;;;;;;5033486;28;20611;-83
2023/01/04 09:18:02;;;;;;;8.23;3.65;;;11.20;99.90;;;;;;5032185;28;20052;-85
2023/01/04 09:20:28;;;;;;;7.50;4.78;;;11.20;99.90;;;;;;5029836;28;20071;-83
2023/01/04 09:22:56;;;;;;;8.48;4.03;;;11.30;99.90;;;;;;5054953;28;20032;-84
2023/01/04 09:25:21;;;;;;;6.95;3.72;;;11.30;99.90;;;;;;5051027;28;20067;-84
2023/01/04 09:27:47;;;;;;;6.13;4.07;;;11.30;99.90;;;;;;5050742;28;20033;-82
2023/01/04 09:30:13;;;;;;;6.45;3.55;;;11.30;99.90;;;;;;5051201;28;20078;-84
2023/01/04 09:32:38;;;;;;;5.93;3.72;;;11.30;99.90;;;;;;5033257;28;20445;-81
2023/01/04 09:35:04;;;;;;;8.07;4.13;;;11.30;99.90;;;;;;5050904;28;20021;-82
2023/01/04 09:37:30;;;;;;;8.43;3.65;;;11.30;99.90;;;;;;5050756;28;20037;-83
2023/01/04 09:39:55;;;;;;;7.88;3.78;;;11.30;99.90;;;;;;5050872;28;20021;-83
2023/01/04 09:42:37;;;;;;;5.55;3.15;;;11.40;99.90;;;;;;5033198;28;20052;-82
2023/01/04 09:45:16;;;;;;;5.80;3.50;;;11.40;99.90;;;;;;5032922;28;20032;-82
2023/01/04 09:47:59;;;;;;;7.30;3.90;;;11.40;99.90;;;;;;5050275;28;20033;-83
2023/01/04 09:50:30;;;;;;;7.72;4.15;;;11.40;99.90;;;;;;5050125;28;20061;-81
2023/01/04 09:53:19;;;;;;;6.88;4.05;;;11.40;99.90;;;;;;5050925;28;20037;-83
2023/01/04 09:55:51;;;;;;;6.68;3.50;;;11.40;99.90;;;;;;5050761;28;20013;-83
2023/01/04 09:58:33;;;;;;;7.03;3.78;;;11.40;99.90;;;;;;5033092;28;20119;-82
2023/01/04 10:01:06;;;;;;;4.63;3.55;;;11.40;99.90;;;;;;5051154;28;20028;-84
2023/01/04 10:03:38;;;;;;;6.30;2.97;;;11.50;99.90;;;;;;5034582;28;20543;-80
2023/01/04 10:06:08;;;;;;;5.50;3.40;;;11.40;99.90;;;;;;5054882;28;20483;-82
2023/01/04 10:08:34;;;;;;;5.20;3.50;;;11.40;99.90;;;;;;5036486;28;20479;-81
2023/01/04 10:11:11;;;;;;;6.05;3.13;;;11.50;99.90;;;;;;5053441;28;20078;-81
2023/01/04 10:14:01;;;;;;;5.20;3.72;;;11.50;99.90;;;;;;5036386;28;20471;-81
2023/01/04 10:16:48;;;;;;;5.38;3.47;;;11.50;99.90;;;;;;5036416;28;20031;-82
2023/01/04 10:19:23;;;;;;;6.75;3.55;;;11.50;99.90;;;;;;5036239;28;20047;-83
2023/01/04 10:21:52;;;;;;;7.75;3.35;;;11.50;99.90;;;;;;5054071;28;20037;-82
2023/01/04 10:24:45;;;;;;;5.72;3.20;;;11.60;99.90;;;;;;5036455;28;20032;-82
2023/01/04 10:27:14;;;;;;;4.07;2.58;;;11.50;99.90;;;;;;5054567;28;20467;-82
2023/01/04 10:30:20;;;;;;;5.53;2.90;;;11.50;99.90;;;;;;5036332;28;20412;-82
2023/01/04 10:32:55;;;;;;;3.45;2.92;;;11.50;99.90;;;;;;5036249;28;20039;-83
2023/01/04 10:35:24;;;;;;;4.30;2.80;;;11.50;99.90;;;;;;5038376;28;20095;-82
2023/01/04 10:37:55;;;;;;;4.35;3.20;;;11.50;99.90;;;;;;5054042;28;20037;-83
2023/01/04 10:40:21;;;;;;;5.90;3.25;;;11.50;99.90;;;;;;5036382;28;20048;-83
2023/01/04 10:43:04;;;;;;;4.25;3.08;;;11.50;99.90;;;;;;5053972;28;20029;-83
2023/01/04 10:45:45;;;;;;;6.30;3.87;;;11.50;99.90;;;;;;5021407;28;20056;-82
2023/01/04 10:48:25;;;;;;;5.55;3.47;;;11.50;99.90;;;;;;5053421;28;20398;-82
2023/01/04 10:50:59;;;;;;;6.03;3.50;;;11.50;99.90;;;;;;5032491;28;20175;-82
2023/01/04 10:53:28;;;;;;;6.47;3.28;;;11.60;99.90;;;;;;5038508;28;20024;-82
2023/01/04 10:56:01;;;;;;;5.85;3.38;;;11.60;99.90;;;;;;5036214;28;20179;-81
2023/01/04 10:58:56;;;;;;;5.93;3.47;;;11.60;99.90;;;;;;5035973;28;20399;-85
2023/01/04 11:01:47;;;;;;;5.43;3.47;;;11.60;99.90;;;;;;5002977;28;20025;-85
2023/01/04 11:04:38;;;;;;;5.90;3.60;;;11.60;99.90;;;;;;4897079;28;20112;-84
2023/01/04 11:07:17;;;;;;;4.95;3.00;;;11.60;99.90;;;;;;5027630;28;20136;-83
2023/01/04 11:10:09;;;;;;;5.18;3.80;;;11.60;99.90;;;;;;5032315;28;20020;-84
2023/01/04 11:12:35;;;;;;;4.65;3.55;;;11.70;99.90;;;;;;4998425;28;20059;-83
2023/01/04 11:15:00;;;;;;;6.80;4.00;;;11.70;99.90;;;;;;5049208;28;20099;-83
2023/01/04 11:17:27;;;;;;;5.47;3.63;;;11.70;99.90;;;;;;5034633;28;20549;-83
2023/01/04 11:19:53;;;;;;;5.18;3.55;;;11.70;99.90;;;;;;5032257;28;20025;-84
2023/01/04 11:22:30;;;;;;;4.88;3.35;;;11.70;99.90;;;;;;5033347;28;20031;-83
2023/01/04 11:25:01;;;;;;;5.00;3.30;;;11.70;99.90;;;;;;5049500;28;20433;-83
2023/01/04 11:27:31;;;;;;;3.50;3.00;;;11.70;99.90;;;;;;5032837;28;20025;-82
2023/01/04 11:30:05;;;;;;;4.05;3.25;;;11.70;99.90;;;;;;5024112;28;20037;-83
2023/01/04 11:32:59;;;;;;;4.38;2.95;;;11.70;99.90;;;;;;5050929;28;20475;-85
2023/01/04 11:35:43;;;;;;;3.70;2.70;;;11.70;99.90;;;;;;5028906;28;20056;-83
2023/01/04 11:38:20;;;;;;;6.65;3.40;;;11.70;99.90;;;;;;5056034;28;20036;-81
2023/01/04 11:40:59;;;;;;;5.15;3.90;;;11.70;99.90;;;;;;5052891;28;20063;-82
2023/01/04 11:43:30;;;;;;;4.70;2.75;;;11.70;99.90;;;;;;5035015;28;20419;-81
2023/01/04 11:45:55;;;;;;;4.18;3.00;;;11.70;99.90;;;;;;5053153;28;20379;-81
2023/01/04 11:48:39;;;;;;;4.32;3.20;;;11.70;99.90;;;;;;5060444;28;20021;-83
2023/01/04 11:51:20;;;;;;;4.88;3.35;;;11.70;99.90;;;;;;5033091;28;20024;-82
2023/01/04 11:53:59;;;;;;;4.10;3.45;;;11.70;99.90;;;;;;5035551;28;20024;-82
2023/01/04 11:56:29;;;;;;;4.13;2.80;;;11.70;99.90;;;;;;5052185;28;20120;-80
2023/01/04 11:59:04;;;;;;;4.32;2.63;;;11.70;99.90;;;;;;5034956;28;20091;-81
2023/01/04 12:01:34;;;;;;;3.92;3.03;;;11.70;99.90;;;;;;5052667;28;20507;-83
2023/01/04 12:04:00;;;;;;;3.92;2.60;;;11.70;99.90;;;;;;5060122;28;20055;-84
2023/01/04 12:06:48;;;;;;;3.63;3.33;;;11.80;99.90;;;;;;5034063;28;20029;-82
2023/01/04 12:09:25;;;;;;;3.35;2.78;;;11.80;99.90;;;;;;5045862;28;20017;-82
2023/01/04 12:11:56;;;;;;;3.70;2.95;;;11.80;99.90;;;;;;5054204;28;20031;-82
2023/01/04 12:14:31;;;;;;;5.65;3.20;;;11.80;99.90;;;;;;5031163;28;20613;-83
2023/01/04 12:17:19;;;;;;;4.88;3.60;;;11.80;99.90;;;;;;5049287;28;20056;-82
2023/01/04 12:19:46;;;;;;;5.88;4.13;;;11.80;99.90;;;;;;5030813;28;20033;-82
2023/01/04 12:22:30;;;;;;;6.68;4.07;;;11.80;99.90;;;;;;5048614;28;20032;-82
2023/01/04 12:24:56;;;;;;;5.75;4.40;;;11.90;99.90;;;;;;5033852;28;20372;-82
2023/01/04 12:27:22;;;;;;;4.95;4.45;;;11.80;99.90;;;;;;5030787;28;20035;-82
2023/01/04 12:29:56;;;;;;;5.05;4.55;;;11.90;99.90;;;;;;5030726;28;20033;-84
2023/01/04 12:32:21;;;;;;;;;;;12.00;99.90;;;;;;5049212;28;20104;-83
2023/01/04 12:34:47;;;;;;;5.95;5.00;;;12.00;99.90;;;;;;5048869;28;19904;-83
2023/01/04 12:37:55;;;;;;;8.65;5.30;;;12.00;99.90;;;;;;5030596;28;20041;-83
2023/01/04 12:40:46;;;;;;;5.90;5.00;;;12.10;99.90;;;;;;5049367;28;20029;-82
2023/01/04 12:43:15;;;;;;;8.00;4.82;;;12.10;99.90;;;;;;5048807;28;20017;-82
2023/01/04 12:45:41;;;;;;;5.40;4.63;;;12.20;99.90;;;;;;5049170;28;20099;-82
2023/01/04 12:51:19;;;;;;;6.63;4.47;;;12.20;99.90;;;;;;5048118;28;20059;-85
2023/01/04 12:53:58;;;;;;;5.10;4.38;;;12.20;99.90;;;;;;5030992;28;20083;-82
2023/01/04 12:57:02;;;;;;;5.55;3.95;;;12.30;99.90;;;;;;5048726;28;20017;-84
2023/01/04 12:59:53;;;;;;;7.15;4.20;;;12.30;99.90;;;;;;5021354;28;20047;-83
2023/01/04 13:02:29;;;;;;;8.07;3.90;;;12.30;99.90;;;;;;5047392;28;20032;-84
2023/01/04 13:04:58;;;;;;;8.32;3.85;;;12.30;99.90;;;;;;5049642;28;20033;-83
2023/01/04 13:07:30;;;;;;;6.40;3.33;;;12.40;99.90;;;;;;5048432;28;20032;-83
2023/01/04 13:10:01;;;;;;;6.50;3.67;;;12.40;99.90;;;;;;5030247;28;20032;-84
2023/01/04 13:12:59;;;;;;;5.65;3.20;;;12.40;99.90;;;;;;5029919;28;20556;-82
2023/01/04 13:15:37;;;;;;;6.18;3.40;;;12.40;99.90;;;;;;5038838;28;20692;-82
2023/01/04 13:18:30;;;;;;;7.80;3.13;;;12.50;99.90;;;;;;5030120;28;20048;-83
2023/01/04 13:20:56;;;;;;;6.80;3.28;;;12.50;99.90;;;;;;5045061;28;20529;-82
2023/01/04 13:23:25;;;;;;;8.27;3.75;;;12.50;99.90;;;;;;5029757;28;20020;-83
2023/01/04 13:25:50;;;;;;;5.97;3.00;;;12.50;99.90;;;;;;5029944;28;20053;-82
2023/01/04 13:28:18;;;;;;;6.75;3.10;;;12.50;99.90;;;;;;5040334;28;20106;-83
2023/01/04 13:30:45;;;;;;;5.20;3.30;;;12.50;99.90;;;;;;5023897;28;20490;-83
2023/01/04 13:33:19;;;;;;;5.90;3.42;;;12.60;99.90;;;;;;5040853;28;20083;-83
2023/01/04 13:36:08;;;;;;;7.50;3.40;;;12.60;99.90;;;;;;5021651;28;20132;-82
2023/01/04 13:38:35;;;;;;;6.60;3.47;;;12.50;99.90;;;;;;5025122;28;20041;-82
2023/01/04 13:41:04;;;;;;;6.68;3.28;;;12.50;99.90;;;;;;5032809;28;20030;-83
2023/01/04 13:43:53;;;;;;;5.38;3.30;;;12.60;99.90;;;;;;5033739;28;20048;-83
2023/01/04 13:46:21;;;;;;;5.65;3.22;;;12.60;99.90;;;;;;5051357;28;20031;-84
2023/01/04 13:48:50;;;;;;;7.07;3.85;;;12.60;99.90;;;;;;5033569;28;20021;-83
2023/01/04 13:51:29;;;;;;;5.88;3.80;;;12.60;99.90;;;;;;5049259;28;20447;-82
2023/01/04 13:53:57;;;;;;;5.82;3.60;;;12.70;99.90;;;;;;5033863;28;20467;-82